Terminal Aerodrome Forecast
Issued by NWS

Home | Current Version | Previous Version | Text Only | Print | Product List | Glossary On
Versions: 1 2 3 4 5 6 7 8 9 10 11 12 13
000
FTUS46 KLOX 302340
TAFWJF
TAF
KWJF 302340Z 0100/0124 21025G30KT P6SM SKC
     FM010200 25012KT P6SM BKN250
     FM010900 23007KT P6SM SCT150 BKN250
     FM011800 21012G17KT P6SM OVC250
     FM012000 21015G23KT P6SM OVC250
     FM012200 22022G30KT P6SM OVC250=

USA.gov is the U.S. government's official web portal to all federal, state and local government web resources and services.